METAR Data
IDs: Format: Raw Decoded Include TAF

Data at: 2058 UTC 18 Sep 2018

KODX 182053Z AUTO 00000KT 10SM CLR 27/19 A2989 RMK AO2 SLP108 60001 T02670194 55004
KODX 181953Z AUTO 09007KT 10SM CLR 26/19 A2987 RMK AO2 SLP103 T02560189
KODX 181924Z AUTO 13011KT 10SM CLR 24/19 A2987 RMK AO2 LTG DSNT NE-SE T02390194
KODX 181909Z AUTO 11011KT 10SM VCTS FEW048 FEW120 23/19 A2988 RMK AO2 LTG DSNT N-SE T02280194
KODX 181853Z AUTO 12011G17KT 10SM FEW039 SCT065 BKN120 22/19 A2989 RMK AO2 LTG DSNT ALQDS RAB25E41 TSB25E42 SLP111 P0001 T02170189
KODX 181848Z AUTO 12009KT 10SM VCTS FEW044 SCT070 BKN095 21/18 A2990 RMK AO2 LTG DSNT ALQDS RAB25E41 TSB25E42 P0001
KODX 181831Z AUTO 14006KT 8SM TSRA FEW030 SCT060 OVC095 21/19 A2991 RMK AO2 LTG DSNT ALQDS RAB25 TSB25 P0001 T02110189
KODX 181820Z AUTO 13005KT 10SM VCTS OVC095 20/18 A2992 RMK AO2 LTG DSNT E AND SW AND NW T02000178
KODX 181753Z AUTO 11011KT 10SM FEW025 OVC095 19/18 A2992 RMK AO2 LTG DSNT E AND W RAB22E45 TSB21E41 SLP123 P0012 60012 T01940183 10206 20161 58025
KODX 181741Z AUTO 09006KT 10SM -RA FEW025 OVC100 19/18 A2993 RMK AO2 RAB22 TSB21E41 P0012 T01890178
KODX 181727Z AUTO 03007KT 2 1/2SM +TSRA BR FEW032 OVC100 19/17 A2996 RMK AO2 LTG DSNT NE RAB22 TSB21 P0011 T01890167
KODX 181709Z AUTO 07007KT 10SM VCTS BKN100 20/17 A2996 RMK AO2 LTG DSNT NW T02000167
KODX 181653Z AUTO 10SM SCT110 20/17 A2998 RMK AO2 RAE14 SLP144 P0000 T02000167
KODX 181553Z AUTO VRB03KT 7SM -RA FEW007 BKN110 17/16 A3000 RMK AO2 LTG DSNT N AND S RAB40 SLP152 P0000 T01670161
KODX 181549Z AUTO 00000KT 6SM -RA BR SCT007 BKN110 17/16 A3002 RMK AO2 LTG DSNT N AND S AND NW RAB40 P0000
KODX 181540Z AUTO 30009G25KT 8SM VCTS -RA BKN007 BKN100 OVC120 17/16 A3002 RMK AO2 LTG DSNT SW-NW RAB40 CIG 006V011 P0000 T01670161
KODX 181528Z AUTO 26013G21KT 9SM BKN006 17/16 A3003 RMK AO2 LTG DSNT SW AND W PRESRR T01670161
KODX 181453Z AUTO 27013G17KT 10SM VCTS OVC006 17/16 A3000 RMK AO2 LTG DSNT NE AND W PRESRR SLP151 60000 T01670161 53021
KODX 181353Z AUTO 12003KT 8SM OVC005 16/16 A2994 RMK AO2 LTG DSNT ALQDS RAB26E38 TSB29E44 SLP131 P0000 T01610156
KODX 181350Z AUTO 00000KT 8SM VCTS OVC005 16/16 A2994 RMK AO2 LTG DSNT NW-E RAB26E38 TSB29E44 P0000
KODX 181335Z AUTO 10009KT 8SM -TSRA BKN005 OVC100 16/16 A2993 RMK AO2 LTG DSNT N AND NE RAB26 TSB29 PRESFR P0000 T01610156
KODX 181322Z AUTO 02009KT 9SM VCTS OVC005 16/15 A2994 RMK AO2 LTG DSNT N AND NW T01610150
KODX 181253Z AUTO 03006KT 9SM OVC005 16/16 A2993 RMK AO2 LTG DSNT NW SLP126 T01610156
KODX 181153Z AUTO 02007KT 9SM OVC006 17/17 A2993 RMK AO2 RAB13E30 SLP124 P0000 60000 T01720167 10233 20172 50023 $
KODX 181126Z AUTO 34009KT 10SM -RA BKN007 18/17 A2994 RMK AO2 RAB13 P0000 T01780172 $
KODX 181114Z AUTO 33011KT 10SM -RA SCT008 18/17 A2995 RMK AO2 RAB13 P0000 T01830172 $
KODX 181053Z AUTO 35009KT 10SM CLR 19/18 A2993 RMK AO2 SLP122 T01940178 $
KODX 180953Z AUTO 34003KT 10SM CLR 19/19 A2990 RMK AO2 SLP109 T01940189 $
KODX 180853Z AUTO 12003KT 10SM CLR 22/19 A2986 RMK AO2 SLP096 T02170194 58010 $
KODX 180753Z AUTO 18007KT 10SM CLR 23/19 A2986 RMK AO2 SLP098 T02280194 $
KODX 180653Z AUTO 12004KT 10SM CLR 22/19 A2990 RMK AO2 SLP111 T02170194 $
KODX 180553Z AUTO 12006KT 10SM CLR 22/19 A2989 RMK AO2 SLP108 60000 T02220189 10300 20211 403330172 50001 $
KODX 180453Z AUTO 08003KT 10SM CLR 22/19 A2990 RMK AO2 SLP111 T02220189 $
KODX 180353Z AUTO 11003KT 10SM CLR 23/19 A2989 RMK AO2 SLP108 T02280189 TSNO $
KODX 180253Z AUTO 00000KT 10SM CLR 23/19 A2989 RMK AO2 SLP109 60000 T02330194 53014 TSNO $
KODX 180153Z AUTO 00000KT 10SM CLR 23/19 A2987 RMK AO2 RAB29E37 SLP105 P0000 T02330189 $
KODX 180053Z AUTO 14005KT 10SM CLR 28/18 A2984 RMK AO2 SLP095 T02780178 $
KODX 172353Z AUTO 17005KT 10SM CLR 31/18 A2984 RMK AO2 SLP094 T03060183 10333 20306 55004 $
KODX 172253Z AUTO 20007KT 10SM CLR 32/17 A2984 RMK AO2 SLP092 T03220172 $
KODX 172153Z AUTO 18012G19KT 10SM CLR 33/17 A2984 RMK AO2 SLP089 T03330167
KODX 172053Z AUTO 20009KT 10SM CLR 33/17 A2986 RMK AO2 SLP096 T03330172 56017
KODX 171953Z AUTO 16008KT 10SM CLR 33/18 A2987 RMK AO2 SLP101 T03280178
KODX 171853Z AUTO 16008KT 10SM CLR 32/19 A2989 RMK AO2 SLP108 T03220189
KODX 171753Z AUTO 16006KT 10SM CLR 31/20 A2991 RMK AO2 SLP114 T03110200 10311 20172 58004
KODX 171653Z AUTO 18004KT 10SM CLR 28/20 A2992 RMK AO2 SLP121 T02780200
KODX 171553Z AUTO 18005KT 10SM CLR 26/20 A2992 RMK AO2 SLP121 T02560200
KODX 171453Z AUTO 19009KT 10SM CLR 23/20 A2992 RMK AO2 SLP122 T02330200 50005
KODX 171353Z AUTO 11003KT 7SM CLR 19/19 A2993 RMK AO2 SLP123 T01940189 $
KODX 171253Z AUTO 13003KT 4SM BR CLR 18/18 A2991 RMK AO2 SLP119 T01780178 $
KODX 171153Z AUTO 12004KT 5SM BR CLR 17/17 A2991 RMK AO2 SLP116 T01720172 10211 20172 55001 $
KODX 171053Z AUTO 00000KT 5SM BR CLR 17/17 A2990 RMK AO2 SLP115 T01720172 $
KODX 170953Z AUTO 10004KT 9SM CLR 18/18 A2990 RMK AO2 SLP114 T01830178 $